Time;durP1;ratioP1;P1;durP2;ratioP2;P2;SDS_P1;SDS_P2;PMS_P1;PMS_P2;Temp;Humidity;BMP_temperature;BMP_pressure;BME280_temperature;BME280_humidity;BME280_pressure;Samples;Min_cycle;Max_cycle;Signal;HPM_P1;HPM_P2
2024/03/08 00:01:46;;;;;;;24.15;20.35;;;;;;;;;;5095265;28;20406;-59
2024/03/08 00:04:13;;;;;;;26.35;19.95;;;;;;;;;;5095026;28;20067;-58
2024/03/08 00:06:41;;;;;;;27.25;19.33;;;;;;;;;;5095522;28;20063;-58
2024/03/08 00:09:08;;;;;;;27.92;21.67;;;;;;;;;;5095009;28;20052;-58
2024/03/08 00:11:35;;;;;;;26.48;20.00;;;;;;;;;;5086250;28;20055;-59
2024/03/08 00:14:02;;;;;;;25.67;20.42;;;;;;;;;;5090380;28;20047;-58
2024/03/08 00:16:29;;;;;;;26.73;20.70;;;;;;;;;;5095262;28;20055;-58
2024/03/08 00:18:56;;;;;;;25.25;20.65;;;;;;;;;;5093081;28;20079;-58
2024/03/08 00:21:22;;;;;;;23.60;19.67;;;;;;;;;;5076044;28;20429;-58
2024/03/08 00:23:51;;;;;;;27.08;19.83;;;;;;;;;;5091085;28;20048;-57
2024/03/08 00:26:18;;;;;;;27.40;19.88;;;;;;;;;;5094938;28;20052;-58
2024/03/08 00:28:44;;;;;;;29.08;20.98;;;;;;;;;;5090705;28;20052;-58
2024/03/08 00:31:11;;;;;;;27.02;21.67;;;;;;;;;;5095100;28;20052;-57
2024/03/08 00:33:39;;;;;;;26.52;21.05;;;;;;;;;;5091816;28;20052;-58
2024/03/08 00:36:07;;;;;;;27.55;21.20;;;;;;;;;;5087506;28;20048;-57
2024/03/08 00:38:34;;;;;;;30.38;20.75;;;;;;;;;;5090856;28;20052;-58
2024/03/08 00:41:03;;;;;;;28.95;22.05;;;;;;;;;;5094105;28;20055;-58
2024/03/08 00:43:30;;;;;;;29.38;22.30;;;;;;;;;;5088819;28;20096;-58
2024/03/08 00:45:57;;;;;;;33.35;23.63;;;;;;;;;;5089868;28;20051;-58
2024/03/08 00:48:24;;;;;;;26.92;21.67;;;;;;;;;;5085739;28;20048;-58
2024/03/08 00:50:51;;;;;;;27.33;21.52;;;;;;;;;;5091620;28;20067;-58
2024/03/08 00:53:18;;;;;;;27.05;20.63;;;;;;;;;;5090352;28;20048;-58
2024/03/08 00:55:46;;;;;;;27.88;20.75;;;;;;;;;;5093897;28;20055;-59
2024/03/08 00:58:14;;;;;;;29.67;23.13;;;;;;;;;;5091056;28;20048;-58
2024/03/08 01:00:41;;;;;;;27.05;21.67;;;;;;;;;;5087185;28;20044;-58
2024/03/08 01:03:08;;;;;;;29.10;21.15;;;;;;;;;;5086812;28;20052;-58
2024/03/08 01:05:35;;;;;;;27.58;21.17;;;;;;;;;;5091526;28;20063;-58
2024/03/08 01:08:02;;;;;;;28.00;20.65;;;;;;;;;;5094051;28;20063;-57
2024/03/08 01:10:29;;;;;;;26.42;21.10;;;;;;;;;;5093322;28;20048;-59
2024/03/08 01:12:56;;;;;;;29.92;21.13;;;;;;;;;;5093358;28;20409;-58
2024/03/08 01:15:25;;;;;;;31.00;21.77;;;;;;;;;;5093469;28;20052;-58
2024/03/08 01:17:51;;;;;;;25.40;20.70;;;;;;;;;;5093565;28;20424;-58
2024/03/08 01:20:18;;;;;;;26.75;21.65;;;;;;;;;;5094101;28;20052;-58
2024/03/08 01:22:45;;;;;;;27.58;21.55;;;;;;;;;;5093204;28;20052;-58
2024/03/08 01:25:12;;;;;;;28.17;20.63;;;;;;;;;;5093418;28;20079;-58
2024/03/08 01:27:39;;;;;;;30.95;22.95;;;;;;;;;;5093738;28;20059;-58
2024/03/08 01:30:07;;;;;;;27.83;22.55;;;;;;;;;;5093443;28;20063;-58
2024/03/08 01:32:36;;;;;;;28.75;21.75;;;;;;;;;;5093195;28;20055;-58
2024/03/08 01:35:02;;;;;;;29.80;21.92;;;;;;;;;;5093107;28;20067;-58
2024/03/08 01:37:30;;;;;;;29.00;22.42;;;;;;;;;;5093254;28;20059;-58
2024/03/08 01:39:57;;;;;;;29.10;20.98;;;;;;;;;;5092980;28;20052;-57
2024/03/08 01:42:24;;;;;;;29.80;22.42;;;;;;;;;;5091624;28;20052;-57
2024/03/08 01:44:51;;;;;;;29.15;22.42;;;;;;;;;;5091938;28;20059;-58
2024/03/08 01:47:18;;;;;;;29.15;22.65;;;;;;;;;;5092703;28;20051;-57
2024/03/08 01:49:46;;;;;;;29.02;21.45;;;;;;;;;;5092823;28;20056;-57
2024/03/08 01:52:13;;;;;;;31.17;23.17;;;;;;;;;;5093090;28;20504;-58
2024/03/08 01:54:40;;;;;;;30.77;22.60;;;;;;;;;;5092578;28;20048;-57
2024/03/08 01:57:07;;;;;;;32.08;23.55;;;;;;;;;;5093295;28;20063;-58
2024/03/08 01:59:34;;;;;;;30.95;23.13;;;;;;;;;;5092722;28;20058;-58
2024/03/08 02:02:02;;;;;;;31.20;21.92;;;;;;;;;;5092733;28;20059;-57
2024/03/08 02:04:30;;;;;;;28.92;21.48;;;;;;;;;;5090961;28;20044;-58
2024/03/08 02:06:58;;;;;;;29.67;22.05;;;;;;;;;;5085627;28;20048;-57
2024/03/08 02:09:25;;;;;;;30.20;21.85;;;;;;;;;;5085123;28;20060;-57
2024/03/08 02:11:54;;;;;;;28.80;21.92;;;;;;;;;;5086230;28;20059;-58
2024/03/08 02:14:21;;;;;;;32.28;23.27;;;;;;;;;;5085236;28;20055;-57
2024/03/08 02:16:48;;;;;;;33.63;24.08;;;;;;;;;;5088206;28;20051;-57
2024/03/08 02:19:14;;;;;;;31.70;22.42;;;;;;;;;;5084139;28;20066;-57
2024/03/08 02:21:43;;;;;;;30.60;23.20;;;;;;;;;;5085677;28;20054;-57
2024/03/08 02:24:10;;;;;;;32.47;21.92;;;;;;;;;;5083281;28;20067;-57
2024/03/08 02:26:37;;;;;;;31.77;22.77;;;;;;;;;;5087664;28;20054;-58
2024/03/08 02:29:05;;;;;;;31.00;23.05;;;;;;;;;;5092589;28;20056;-58
2024/03/08 02:31:31;;;;;;;31.25;23.08;;;;;;;;;;5090808;28;20056;-57
2024/03/08 02:33:59;;;;;;;32.75;22.85;;;;;;;;;;5086377;28;20481;-58
2024/03/08 02:36:26;;;;;;;29.42;22.33;;;;;;;;;;5089144;28;20048;-57
2024/03/08 02:38:55;;;;;;;30.45;22.70;;;;;;;;;;5092304;28;20059;-56
2024/03/08 02:41:22;;;;;;;30.75;22.38;;;;;;;;;;5081969;28;20056;-57
2024/03/08 02:43:50;;;;;;;29.80;22.88;;;;;;;;;;5076417;28;20048;-57
2024/03/08 02:46:17;;;;;;;29.48;21.33;;;;;;;;;;5092190;28;20091;-57
2024/03/08 02:48:43;;;;;;;33.22;21.63;;;;;;;;;;5090599;28;20048;-57
2024/03/08 02:51:11;;;;;;;29.70;21.58;;;;;;;;;;5084570;28;20067;-57
2024/03/08 02:53:38;;;;;;;30.10;22.40;;;;;;;;;;5083931;28;20059;-59
2024/03/08 02:56:08;;;;;;;31.42;21.95;;;;;;;;;;5083600;28;20040;-56
2024/03/08 02:58:35;;;;;;;30.67;22.08;;;;;;;;;;5087854;28;20052;-57
2024/03/08 03:01:01;;;;;;;28.90;22.00;;;;;;;;;;5085506;28;20059;-57
2024/03/08 03:03:28;;;;;;;29.70;21.67;;;;;;;;;;5085783;28;20071;-57
2024/03/08 03:05:56;;;;;;;33.28;22.40;;;;;;;;;;5081979;28;20070;-56
2024/03/08 03:08:23;;;;;;;32.92;24.27;;;;;;;;;;5085376;28;20071;-56
2024/03/08 03:10:50;;;;;;;28.05;21.27;;;;;;;;;;5090059;28;20052;-57
2024/03/08 03:13:19;;;;;;;30.17;21.92;;;;;;;;;;5087025;28;20413;-57
2024/03/08 03:15:47;;;;;;;31.30;22.00;;;;;;;;;;5084558;28;20397;-57
2024/03/08 03:18:14;;;;;;;31.73;22.45;;;;;;;;;;5084661;28;20075;-56
2024/03/08 03:20:42;;;;;;;32.08;22.65;;;;;;;;;;5081719;28;20052;-57
2024/03/08 03:23:09;;;;;;;29.20;22.70;;;;;;;;;;5089337;28;20053;-57
2024/03/08 03:25:38;;;;;;;28.98;22.40;;;;;;;;;;5085818;28;20469;-57
2024/03/08 03:28:07;;;;;;;31.83;21.77;;;;;;;;;;5083506;28;20048;-57
2024/03/08 03:30:35;;;;;;;30.92;22.42;;;;;;;;;;5087057;28;20051;-57
2024/03/08 03:33:06;;;;;;;32.67;23.25;;;;;;;;;;5088756;28;20063;-57
2024/03/08 03:35:34;;;;;;;28.58;21.05;;;;;;;;;;5087541;28;20067;-57
2024/03/08 03:38:06;;;;;;;31.85;21.45;;;;;;;;;;5088580;28;20054;-57
2024/03/08 03:40:33;;;;;;;31.77;22.50;;;;;;;;;;5087337;28;20053;-57
2024/03/08 03:43:00;;;;;;;30.55;22.25;;;;;;;;;;5092562;28;20401;-57
2024/03/08 03:45:27;;;;;;;30.77;22.17;;;;;;;;;;5085718;28;20425;-57
2024/03/08 03:47:55;;;;;;;31.25;22.02;;;;;;;;;;5088226;28;20618;-57
2024/03/08 03:50:23;;;;;;;31.77;23.27;;;;;;;;;;5088070;28;20048;-57
2024/03/08 03:52:50;;;;;;;32.13;22.38;;;;;;;;;;5094139;28;20059;-56
2024/03/08 03:55:17;;;;;;;29.23;21.73;;;;;;;;;;5090069;28;20044;-57
2024/03/08 03:57:45;;;;;;;33.47;22.67;;;;;;;;;;5086901;28;20056;-57
2024/03/08 04:00:12;;;;;;;33.50;22.83;;;;;;;;;;5087816;28;20055;-57
2024/03/08 04:02:39;;;;;;;31.63;23.00;;;;;;;;;;5090142;28;20052;-57
2024/03/08 04:05:08;;;;;;;32.92;22.02;;;;;;;;;;5091128;28;20056;-57
2024/03/08 04:07:35;;;;;;;30.15;21.92;;;;;;;;;;5087871;28;20056;-57
2024/03/08 04:10:03;;;;;;;29.10;21.67;;;;;;;;;;5090304;28;20048;-57
2024/03/08 04:12:30;;;;;;;28.42;21.08;;;;;;;;;;5095034;28;20056;-57
2024/03/08 04:14:57;;;;;;;31.00;21.38;;;;;;;;;;5090474;28;20048;-58
2024/03/08 04:17:25;;;;;;;31.20;21.88;;;;;;;;;;5087563;28;20067;-58
2024/03/08 04:19:51;;;;;;;32.55;22.27;;;;;;;;;;5080690;28;20497;-57
2024/03/08 04:22:20;;;;;;;32.15;22.05;;;;;;;;;;5074206;28;20063;-57
2024/03/08 04:24:46;;;;;;;32.35;22.92;;;;;;;;;;5077260;28;20101;-57
2024/03/08 04:27:14;;;;;;;32.97;22.08;;;;;;;;;;5088070;28;20051;-57
2024/03/08 04:29:41;;;;;;;31.35;21.95;;;;;;;;;;5088069;28;20044;-58
2024/03/08 04:32:08;;;;;;;30.65;21.33;;;;;;;;;;5086112;28;20047;-57
2024/03/08 04:34:35;;;;;;;30.77;21.98;;;;;;;;;;5086028;28;20433;-57
2024/03/08 04:37:04;;;;;;;30.17;21.75;;;;;;;;;;5086146;28;20055;-58
2024/03/08 04:39:32;;;;;;;31.02;21.55;;;;;;;;;;5094359;28;20048;-57
2024/03/08 04:42:00;;;;;;;29.75;21.33;;;;;;;;;;5085597;28;20063;-58
2024/03/08 04:44:27;;;;;;;31.88;22.52;;;;;;;;;;5086464;28;20385;-58
2024/03/08 04:46:54;;;;;;;31.70;22.48;;;;;;;;;;5092674;28;20059;-58
2024/03/08 04:49:21;;;;;;;31.75;22.67;;;;;;;;;;5093844;28;20052;-57
2024/03/08 04:51:48;;;;;;;30.70;21.25;;;;;;;;;;5087601;28;20492;-58
2024/03/08 04:54:15;;;;;;;31.60;23.00;;;;;;;;;;5085972;28;20048;-57
2024/03/08 04:56:43;;;;;;;30.90;21.65;;;;;;;;;;5086954;28;20048;-57
2024/03/08 04:59:10;;;;;;;32.88;22.63;;;;;;;;;;5087060;28;20044;-57
2024/03/08 05:01:37;;;;;;;30.67;22.15;;;;;;;;;;5088273;28;20056;-57
2024/03/08 05:04:05;;;;;;;33.25;22.13;;;;;;;;;;5084753;28;20052;-57
2024/03/08 05:06:33;;;;;;;30.13;21.90;;;;;;;;;;5085946;28;20059;-57
2024/03/08 05:08:59;;;;;;;29.08;21.48;;;;;;;;;;5086763;28;20051;-58
2024/03/08 05:11:26;;;;;;;30.42;22.35;;;;;;;;;;5084503;28;20048;-57
2024/03/08 05:13:54;;;;;;;31.60;22.42;;;;;;;;;;5086719;28;20052;-57
2024/03/08 05:16:22;;;;;;;31.90;22.92;;;;;;;;;;5086057;28;20044;-57
2024/03/08 05:18:49;;;;;;;31.00;22.35;;;;;;;;;;5084716;28;20048;-57
2024/03/08 05:21:20;;;;;;;32.25;23.38;;;;;;;;;;5090403;28;20060;-57
2024/03/08 05:23:46;;;;;;;33.97;23.50;;;;;;;;;;5084275;28;20048;-57
2024/03/08 05:26:14;;;;;;;34.70;23.70;;;;;;;;;;5087150;28;20044;-57
2024/03/08 05:28:40;;;;;;;31.75;22.88;;;;;;;;;;5085446;28;20052;-57
2024/03/08 05:31:09;;;;;;;32.38;22.58;;;;;;;;;;5090064;28;20401;-57
2024/03/08 05:33:35;;;;;;;33.85;23.60;;;;;;;;;;5078260;28;20056;-57
2024/03/08 05:36:03;;;;;;;35.38;22.38;;;;;;;;;;5089973;28;20378;-57
2024/03/08 05:38:29;;;;;;;32.88;23.48;;;;;;;;;;5093199;28;20051;-57
2024/03/08 05:40:56;;;;;;;35.17;23.35;;;;;;;;;;5088382;28;20399;-57
2024/03/08 05:43:23;;;;;;;37.20;24.10;;;;;;;;;;5085398;28;20417;-57
2024/03/08 05:45:50;;;;;;;37.42;25.23;;;;;;;;;;5086656;28;20492;-57
2024/03/08 05:48:18;;;;;;;37.25;25.10;;;;;;;;;;5086526;28;20481;-57
2024/03/08 05:50:45;;;;;;;35.65;24.65;;;;;;;;;;5085748;28;20059;-57
2024/03/08 05:53:13;;;;;;;35.75;25.20;;;;;;;;;;5086558;28;20052;-58
2024/03/08 05:55:40;;;;;;;35.85;23.67;;;;;;;;;;5085103;28;20051;-58
2024/03/08 05:58:07;;;;;;;35.42;24.40;;;;;;;;;;5084024;28;20421;-57
2024/03/08 06:00:36;;;;;;;36.75;25.48;;;;;;;;;;5085464;28;20405;-58
2024/03/08 06:03:03;;;;;;;35.17;23.90;;;;;;;;;;5086729;28;20075;-58
2024/03/08 06:05:31;;;;;;;34.10;24.42;;;;;;;;;;5084611;28;20524;-58
2024/03/08 06:07:58;;;;;;;39.60;26.33;;;;;;;;;;5081550;28;20048;-40
2024/03/08 06:10:25;;;;;;;37.80;24.70;;;;;;;;;;5085111;28;20048;-56
2024/03/08 06:12:51;;;;;;;34.60;23.15;;;;;;;;;;5087222;28;20044;-56
2024/03/08 06:15:20;;;;;;;35.72;23.63;;;;;;;;;;5091718;28;20052;-56
2024/03/08 06:17:47;;;;;;;33.35;23.65;;;;;;;;;;5092368;28;20378;-57
2024/03/08 06:20:14;;;;;;;35.95;23.83;;;;;;;;;;5092006;28;20401;-56
2024/03/08 06:22:44;;;;;;;33.08;22.83;;;;;;;;;;5092163;28;20048;-56
2024/03/08 06:25:13;;;;;;;34.15;23.65;;;;;;;;;;5091146;28;20432;-55
2024/03/08 06:27:39;;;;;;;39.47;26.48;;;;;;;;;;5091333;28;20486;-56
2024/03/08 06:30:09;;;;;;;38.97;26.17;;;;;;;;;;5089115;28;20059;-56
2024/03/08 06:32:36;;;;;;;38.35;25.15;;;;;;;;;;5087022;28;20059;-56
2024/03/08 06:35:05;;;;;;;38.85;26.10;;;;;;;;;;5092572;28;20393;-55
2024/03/08 06:37:32;;;;;;;30.73;22.38;;;;;;;;;;5092482;28;20413;-56
2024/03/08 06:40:01;;;;;;;31.67;21.73;;;;;;;;;;5092304;28;20055;-56
2024/03/08 06:42:28;;;;;;;31.58;21.92;;;;;;;;;;5092008;28;20432;-56
2024/03/08 06:44:59;;;;;;;29.08;19.90;;;;;;;;;;5088485;28;20401;-56
2024/03/08 06:47:26;;;;;;;30.42;22.17;;;;;;;;;;5089999;28;20051;-56
2024/03/08 06:49:53;;;;;;;29.17;19.60;;;;;;;;;;5092323;28;20052;-56
2024/03/08 06:52:20;;;;;;;28.52;19.05;;;;;;;;;;5089904;28;20432;-56
2024/03/08 06:54:46;;;;;;;25.73;18.92;;;;;;;;;;5090456;28;20075;-56
2024/03/08 06:57:16;;;;;;;28.02;19.30;;;;;;;;;;5090024;28;20493;-56
2024/03/08 06:59:43;;;;;;;22.00;17.17;;;;;;;;;;5090117;28;20052;-56
2024/03/08 07:02:10;;;;;;;22.48;17.42;;;;;;;;;;5086759;28;20051;-57
2024/03/08 07:04:37;;;;;;;25.48;18.98;;;;;;;;;;5091493;28;20048;-56
2024/03/08 07:07:04;;;;;;;23.27;17.73;;;;;;;;;;5093876;28;20044;-57
2024/03/08 07:09:32;;;;;;;23.40;17.65;;;;;;;;;;5094139;28;20163;-55
2024/03/08 07:11:59;;;;;;;24.52;18.63;;;;;;;;;;5093891;28;20048;-56
2024/03/08 07:14:27;;;;;;;23.40;17.55;;;;;;;;;;5094065;28;20044;-57
2024/03/08 07:16:55;;;;;;;28.27;20.75;;;;;;;;;;5088457;28;20044;-57
2024/03/08 07:19:22;;;;;;;22.95;18.35;;;;;;;;;;5091626;28;20441;-57
2024/03/08 07:21:49;;;;;;;21.63;18.92;;;;;;;;;;5088521;28;20052;-56
2024/03/08 07:26:59;;;;;;;22.58;18.10;;;;;;;;;;5091597;28;20048;-57
2024/03/08 07:29:28;;;;;;;26.02;20.17;;;;;;;;;;5092864;28;20048;-57
2024/03/08 07:32:07;;;;;;;23.45;18.90;;;;;;;;;;5087915;28;20055;-57
2024/03/08 07:34:34;;;;;;;23.90;19.33;;;;;;;;;;5091260;28;20055;-58
2024/03/08 07:37:01;;;;;;;21.88;18.77;;;;;;;;;;5090507;28;20055;-57
2024/03/08 07:39:28;;;;;;;24.52;18.77;;;;;;;;;;5086936;28;20429;-57
2024/03/08 07:41:55;;;;;;;23.30;18.75;;;;;;;;;;5089339;28;20060;-57
2024/03/08 07:44:21;;;;;;;22.95;18.80;;;;;;;;;;5091564;28;20048;-57
2024/03/08 07:46:49;;;;;;;26.80;18.63;;;;;;;;;;5089297;28;20051;-57
2024/03/08 07:49:16;;;;;;;23.85;18.60;;;;;;;;;;5091473;28;20048;-57
2024/03/08 07:51:43;;;;;;;21.15;18.85;;;;;;;;;;5092377;28;20056;-57
2024/03/08 07:54:10;;;;;;;22.23;17.15;;;;;;;;;;5093508;28;20772;-58
2024/03/08 07:56:37;;;;;;;19.92;17.83;;;;;;;;;;5091496;28;20056;-57
2024/03/08 07:59:04;;;;;;;20.45;18.00;;;;;;;;;;5078346;28;20056;-57
2024/03/08 08:01:33;;;;;;;22.23;19.40;;;;;;;;;;5088712;28;20055;-57
2024/03/08 08:04:02;;;;;;;21.15;18.33;;;;;;;;;;5086418;28;20048;-57
2024/03/08 08:06:31;;;;;;;21.27;18.67;;;;;;;;;;5088220;28;20501;-58
2024/03/08 08:08:58;;;;;;;21.98;18.38;;;;;;;;;;5091096;28;20056;-58
2024/03/08 08:11:27;;;;;;;20.27;17.88;;;;;;;;;;5092332;28;20056;-57
2024/03/08 08:13:55;;;;;;;19.13;17.23;;;;;;;;;;5090265;28;20052;-57
2024/03/08 08:16:23;;;;;;;20.92;18.67;;;;;;;;;;5090424;28;20114;-57
2024/03/08 08:18:52;;;;;;;18.98;17.05;;;;;;;;;;5090841;28;20048;-58
2024/03/08 08:21:22;;;;;;;19.75;17.73;;;;;;;;;;5088373;28;20055;-58
2024/03/08 08:23:48;;;;;;;19.70;17.70;;;;;;;;;;5088003;28;20054;-57
2024/03/08 08:26:15;;;;;;;19.70;17.60;;;;;;;;;;5091617;28;20055;-57
2024/03/08 08:28:43;;;;;;;20.00;17.90;;;;;;;;;;5090508;28;20051;-57
2024/03/08 08:31:10;;;;;;;19.50;17.50;;;;;;;;;;5091656;28;20056;-58
2024/03/08 08:33:36;;;;;;;20.20;17.92;;;;;;;;;;5089311;28;20060;-57
2024/03/08 08:36:03;;;;;;;19.33;17.42;;;;;;;;;;5080118;28;20048;-57
2024/03/08 08:38:32;;;;;;;19.65;17.75;;;;;;;;;;5080654;28;20059;-58
2024/03/08 08:40:59;;;;;;;19.63;17.58;;;;;;;;;;5090817;28;20048;-58
2024/03/08 08:43:26;;;;;;;19.40;17.40;;;;;;;;;;5090399;28;20051;-57
2024/03/08 08:45:54;;;;;;;18.85;16.85;;;;;;;;;;5089447;28;20075;-58
2024/03/08 08:48:21;;;;;;;19.48;17.48;;;;;;;;;;5090188;28;20911;-57
2024/03/08 08:50:48;;;;;;;20.15;18.15;;;;;;;;;;5085169;28;20060;-57
2024/03/08 08:53:16;;;;;;;18.85;16.85;;;;;;;;;;5084430;28;20059;-59
2024/03/08 08:55:45;;;;;;;19.50;17.50;;;;;;;;;;5083689;28;20048;-59
2024/03/08 08:58:13;;;;;;;18.83;16.83;;;;;;;;;;5083463;28;20051;-58
2024/03/08 09:00:40;;;;;;;19.70;17.00;;;;;;;;;;5083474;28;20067;-58
2024/03/08 09:03:07;;;;;;;19.40;17.30;;;;;;;;;;5084384;28;20060;-58
2024/03/08 09:05:34;;;;;;;18.45;16.55;;;;;;;;;;5086482;28;20059;-57
2024/03/08 09:08:02;;;;;;;18.10;16.30;;;;;;;;;;5084121;28;20063;-58
2024/03/08 09:10:29;;;;;;;18.25;16.40;;;;;;;;;;5084656;28;20055;-56
2024/03/08 09:12:59;;;;;;;18.30;16.55;;;;;;;;;;5085664;28;20048;-57
2024/03/08 09:15:28;;;;;;;18.38;16.58;;;;;;;;;;5086564;28;20405;-57
2024/03/08 09:17:54;;;;;;;;;;;;;;;;;;5089227;28;20052;-57
2024/03/08 09:20:21;;;;;;;18.13;16.42;;;;;;;;;;5083388;28;19919;-57
2024/03/08 09:22:48;;;;;;;18.80;17.00;;;;;;;;;;5083125;28;20599;-57
2024/03/08 09:25:15;;;;;;;18.30;16.48;;;;;;;;;;5083819;28;20189;-57
2024/03/08 09:27:42;;;;;;;18.13;16.30;;;;;;;;;;5081637;28;20040;-59
2024/03/08 09:30:13;;;;;;;17.85;16.08;;;;;;;;;;5083659;28;20052;-58
2024/03/08 09:32:39;;;;;;;18.02;16.23;;;;;;;;;;5082731;28;20055;-60
2024/03/08 09:35:07;;;;;;;18.23;16.42;;;;;;;;;;5083806;28;20409;-57
2024/03/08 09:37:34;;;;;;;17.92;16.13;;;;;;;;;;5085955;28;20052;-57
2024/03/08 09:40:04;;;;;;;17.92;16.25;;;;;;;;;;5083891;28;20056;-57
2024/03/08 09:42:31;;;;;;;18.52;16.73;;;;;;;;;;5082471;28;20056;-58
2024/03/08 09:44:58;;;;;;;18.25;16.55;;;;;;;;;;5081787;28;20048;-59
2024/03/08 09:47:33;;;;;;;16.80;15.20;;;;;;;;;;5083534;28;20641;-58
2024/03/08 09:50:00;;;;;;;18.83;17.02;;;;;;;;;;5088847;28;20052;-58
2024/03/08 09:52:27;;;;;;;17.98;16.08;;;;;;;;;;5091131;28;20055;-58
2024/03/08 09:54:55;;;;;;;18.40;16.52;;;;;;;;;;5089271;28;20408;-58
2024/03/08 09:57:22;;;;;;;17.73;15.93;;;;;;;;;;5088112;28;20055;-59
2024/03/08 09:59:50;;;;;;;17.33;15.70;;;;;;;;;;5086336;28;20063;-59
2024/03/08 10:02:18;;;;;;;17.00;15.30;;;;;;;;;;5088024;28;20051;-58
2024/03/08 10:04:47;;;;;;;18.53;16.73;;;;;;;;;;5086020;28;20055;-58
2024/03/08 10:07:14;;;;;;;18.17;16.40;;;;;;;;;;5088916;28;20052;-59
2024/03/08 10:09:41;;;;;;;17.85;16.25;;;;;;;;;;5085358;28;20056;-59
2024/03/08 10:12:10;;;;;;;18.10;16.45;;;;;;;;;;5086021;28;20409;-59
2024/03/08 10:14:40;;;;;;;18.73;16.85;;;;;;;;;;5085716;28;20401;-59
2024/03/08 10:17:07;;;;;;;19.02;17.20;;;;;;;;;;5086862;28;20497;-58
2024/03/08 10:19:34;;;;;;;19.38;17.58;;;;;;;;;;5087513;28;20055;-59
2024/03/08 10:22:04;;;;;;;19.58;17.83;;;;;;;;;;5084795;28;20405;-59
2024/03/08 10:24:33;;;;;;;18.85;16.92;;;;;;;;;;5088170;28;20484;-59
2024/03/08 10:27:01;;;;;;;18.58;16.88;;;;;;;;;;5088924;28;20064;-59
2024/03/08 10:29:28;;;;;;;19.52;17.65;;;;;;;;;;5088726;28;20048;-59
2024/03/08 10:31:56;;;;;;;18.70;17.00;;;;;;;;;;5086959;28;20048;-58
2024/03/08 10:34:24;;;;;;;23.77;18.80;;;;;;;;;;5087712;28;20407;-59
2024/03/08 10:36:51;;;;;;;19.48;17.48;;;;;;;;;;5088916;28;20055;-59
2024/03/08 10:39:22;;;;;;;18.20;16.40;;;;;;;;;;5088517;28;20048;-59
2024/03/08 10:41:52;;;;;;;20.20;18.23;;;;;;;;;;5090280;28;20060;-58
2024/03/08 10:44:25;;;;;;;20.38;18.00;;;;;;;;;;5090189;28;20527;-59
2024/03/08 10:46:59;;;;;;;20.85;18.65;;;;;;;;;;5089464;28;20406;-59
2024/03/08 10:49:27;;;;;;;18.00;16.20;;;;;;;;;;5088216;28;20048;-59
2024/03/08 10:51:54;;;;;;;20.02;18.13;;;;;;;;;;5089493;28;20052;-60
2024/03/08 10:54:24;;;;;;;19.13;17.40;;;;;;;;;;5085076;28;20063;-58
2024/03/08 10:56:51;;;;;;;19.55;17.65;;;;;;;;;;5083142;28;20070;-58
2024/03/08 10:59:18;;;;;;;13.82;12.63;;;;;;;;;;5079573;28;20052;-58
2024/03/08 11:01:45;;;;;;;13.73;12.45;;;;;;;;;;5085201;28;20048;-60
2024/03/08 11:04:13;;;;;;;13.52;12.43;;;;;;;;;;5081421;28;20489;-61
2024/03/08 11:06:45;;;;;;;12.05;10.85;;;;;;;;;;5082046;28;20065;-59
2024/03/08 11:12:21;;;;;;;9.90;9.00;;;;;;;;;;5060729;27;20640;-58
2024/03/08 11:14:49;;;;;;;10.40;9.40;;;;;;;;;;5060208;28;20068;-58
2024/03/08 11:17:17;;;;;;;10.40;9.30;;;;;;;;;;5061716;28;20064;-57
2024/03/08 11:19:48;;;;;;;11.18;9.93;;;;;;;;;;5067491;28;20060;-58
2024/03/08 11:22:26;;;;;;;10.82;9.75;;;;;;;;;;5068635;28;20052;-58
2024/03/08 11:24:53;;;;;;;;;;;;;;;;;;5061470;28;20056;-58
2024/03/08 11:27:21;;;;;;;11.52;10.38;;;;;;;;;;5063168;28;19927;-59
2024/03/08 11:30:00;;;;;;;11.88;10.55;;;;;;;;;;5059155;28;20525;-58
2024/03/08 11:32:27;;;;;;;;;;;;;;;;;;5060668;28;20646;-58
2024/03/08 11:34:54;;;;;;;11.23;10.02;;;;;;;;;;5059703;28;19925;-57
2024/03/08 11:37:23;;;;;;;12.73;9.85;;;;;;;;;;5061931;28;20048;-57
2024/03/08 11:39:50;;;;;;;11.50;10.30;;;;;;;;;;5061985;28;20052;-59
2024/03/08 11:42:18;;;;;;;10.90;9.73;;;;;;;;;;5061720;28;20052;-58
2024/03/08 11:44:46;;;;;;;11.27;10.18;;;;;;;;;;5060484;28;20052;-58
2024/03/08 11:47:14;;;;;;;10.75;9.65;;;;;;;;;;5060888;28;20514;-59
2024/03/08 11:49:44;;;;;;;10.77;9.77;;;;;;;;;;5060349;28;20045;-59
2024/03/08 11:52:12;;;;;;;10.77;9.70;;;;;;;;;;5061229;28;20048;-60
2024/03/08 11:54:39;;;;;;;;;;;;;;;;;;5061570;28;20048;-59
2024/03/08 11:57:06;;;;;;;9.95;8.95;;;;;;;;;;5058901;28;19951;-59
2024/03/08 11:59:32;;;;;;;9.73;8.82;;;;;;;;;;5059185;28;20084;-59
2024/03/08 12:02:02;;;;;;;10.35;9.25;;;;;;;;;;5060407;28;20055;-59
2024/03/08 12:04:29;;;;;;;10.55;8.80;;;;;;;;;;5061150;28;20044;-59
2024/03/08 12:06:55;;;;;;;9.10;8.30;;;;;;;;;;5058302;28;20053;-58
2024/03/08 12:09:22;;;;;;;8.50;7.55;;;;;;;;;;5055997;28;20053;-59
2024/03/08 12:11:50;;;;;;;8.77;7.88;;;;;;;;;;5057046;28;20066;-59
2024/03/08 12:14:17;;;;;;;8.67;7.80;;;;;;;;;;5061189;28;20061;-58
2024/03/08 12:16:44;;;;;;;9.88;7.60;;;;;;;;;;5057875;28;20383;-59
2024/03/08 12:19:12;;;;;;;8.57;7.68;;;;;;;;;;5059886;28;20049;-58
2024/03/08 12:21:48;;;;;;;9.10;8.18;;;;;;;;;;5057239;28;20048;-58
2024/03/08 12:24:18;;;;;;;9.35;8.27;;;;;;;;;;5047065;28;20049;-58
2024/03/08 12:26:49;;;;;;;9.70;8.18;;;;;;;;;;5044826;28;20060;-58
2024/03/08 12:29:17;;;;;;;9.90;8.55;;;;;;;;;;5045621;28;20060;-58
2024/03/08 12:31:44;;;;;;;9.07;8.20;;;;;;;;;;5046891;28;20045;-58
2024/03/08 12:34:13;;;;;;;9.93;8.65;;;;;;;;;;5047998;28;20053;-59
2024/03/08 12:36:44;;;;;;;9.05;8.15;;;;;;;;;;5052491;28;20052;-58
2024/03/08 12:39:12;;;;;;;9.15;8.35;;;;;;;;;;5050781;28;20430;-58
2024/03/08 12:41:40;;;;;;;9.18;8.20;;;;;;;;;;5048440;28;20049;-59
2024/03/08 12:44:09;;;;;;;8.65;7.75;;;;;;;;;;5051389;28;20048;-59
2024/03/08 12:46:36;;;;;;;8.50;7.68;;;;;;;;;;5055668;28;20057;-59
2024/03/08 12:49:04;;;;;;;8.57;7.78;;;;;;;;;;5059190;28;20053;-59
2024/03/08 12:51:33;;;;;;;8.13;7.33;;;;;;;;;;5052692;28;20048;-58
2024/03/08 12:54:00;;;;;;;;;;;;;;;;;;5061525;28;20467;-58
2024/03/08 12:56:30;;;;;;;8.85;8.05;;;;;;;;;;5046569;28;20468;-59
2024/03/08 12:58:59;;;;;;;8.23;7.38;;;;;;;;;;5057272;28;20057;-59
2024/03/08 13:01:26;;;;;;;8.65;7.78;;;;;;;;;;5049946;28;20056;-59
2024/03/08 13:03:53;;;;;;;9.30;8.10;;;;;;;;;;5046917;28;20490;-58
2024/03/08 13:06:21;;;;;;;8.48;7.57;;;;;;;;;;5047729;28;20057;-58
2024/03/08 13:08:50;;;;;;;8.73;7.90;;;;;;;;;;5050306;28;20056;-59
2024/03/08 13:11:17;;;;;;;10.27;8.73;;;;;;;;;;5050160;28;20052;-59
2024/03/08 13:13:44;;;;;;;9.43;8.52;;;;;;;;;;5057210;28;20063;-59
2024/03/08 13:16:14;;;;;;;9.02;8.13;;;;;;;;;;5053945;28;20049;-59
2024/03/08 13:18:42;;;;;;;9.20;7.70;;;;;;;;;;5072217;28;20425;-59
2024/03/08 13:21:09;;;;;;;9.43;8.52;;;;;;;;;;5068391;28;20409;-59
2024/03/08 13:23:39;;;;;;;9.43;8.40;;;;;;;;;;5047749;28;20048;-59
2024/03/08 13:26:07;;;;;;;10.07;8.75;;;;;;;;;;5049975;28;20171;-59
2024/03/08 13:28:36;;;;;;;12.90;9.38;;;;;;;;;;5051009;28;20418;-59
2024/03/08 13:31:03;;;;;;;;;;;;;;;;;;5066953;28;20077;-60
2024/03/08 13:33:30;;;;;;;9.52;8.60;;;;;;;;;;5058697;28;19920;-58
2024/03/08 13:35:57;;;;;;;10.27;8.93;;;;;;;;;;5053146;28;20079;-59
2024/03/08 13:38:24;;;;;;;11.07;9.00;;;;;;;;;;5048403;28;20055;-59
2024/03/08 13:40:51;;;;;;;10.40;9.27;;;;;;;;;;5047227;28;20056;-59
2024/03/08 13:43:19;;;;;;;10.52;9.43;;;;;;;;;;5033641;28;20058;-59
2024/03/08 13:45:46;;;;;;;11.95;10.35;;;;;;;;;;5052811;28;20049;-59
2024/03/08 13:48:13;;;;;;;11.45;10.00;;;;;;;;;;5051594;28;20490;-58
2024/03/08 13:50:40;;;;;;;10.85;9.40;;;;;;;;;;5058402;28;20048;-59
2024/03/08 13:53:09;;;;;;;10.52;9.45;;;;;;;;;;5051867;28;20061;-59
2024/03/08 13:55:36;;;;;;;10.73;9.63;;;;;;;;;;5044813;28;20482;-59
2024/03/08 13:58:03;;;;;;;11.82;10.63;;;;;;;;;;5051126;28;20375;-59
2024/03/08 14:00:33;;;;;;;11.85;9.45;;;;;;;;;;5053713;28;20053;-59
2024/03/08 14:03:00;;;;;;;10.85;9.75;;;;;;;;;;5054472;28;20125;-59
2024/03/08 14:05:26;;;;;;;11.10;9.75;;;;;;;;;;5051335;28;20045;-59
2024/03/08 14:07:54;;;;;;;11.13;9.90;;;;;;;;;;5042768;28;20065;-59
2024/03/08 14:10:22;;;;;;;11.05;9.85;;;;;;;;;;5042500;28;20061;-58
2024/03/08 14:12:50;;;;;;;12.68;9.80;;;;;;;;;;5046239;28;20049;-58
2024/03/08 14:15:17;;;;;;;13.10;10.20;;;;;;;;;;5061321;28;20063;-59
2024/03/08 14:17:46;;;;;;;12.63;11.20;;;;;;;;;;5049783;28;20064;-59
2024/03/08 14:20:13;;;;;;;12.07;10.82;;;;;;;;;;5043745;28;20064;-58
2024/03/08 14:22:40;;;;;;;12.15;10.80;;;;;;;;;;5046042;28;20413;-58
2024/03/08 14:25:16;;;;;;;13.32;10.50;;;;;;;;;;5058147;28;20052;-60
2024/03/08 14:27:43;;;;;;;11.90;10.32;;;;;;;;;;5046498;28;20061;-60
2024/03/08 14:30:11;;;;;;;14.65;11.15;;;;;;;;;;5047105;28;20060;-60
2024/03/08 14:32:38;;;;;;;13.13;10.50;;;;;;;;;;5054005;28;20486;-60